Time;durP1;ratioP1;P1;durP2;ratioP2;P2;SDS_P1;SDS_P2;PMS_P1;PMS_P2;Temp;Humidity;BMP_temperature;BMP_pressure;BME280_temperature;BME280_humidity;BME280_pressure;Samples;Min_cycle;Max_cycle;Signal;HPM_P1;HPM_P2
2022/08/29 00:05:02;;;;;;;0.98;0.40;;;15.50;99.90;;;;;;20942453;28;20029;-80
2022/08/29 00:15:06;;;;;;;0.50;0.20;;;15.40;99.90;;;;;;20922287;28;20109;-81
2022/08/29 00:25:08;;;;;;;2.13;0.65;;;15.20;99.90;;;;;;20932393;28;20029;-80
2022/08/29 00:35:18;;;;;;;0.43;0.17;;;15.20;99.90;;;;;;20939312;28;20325;-80
2022/08/29 00:45:20;;;;;;;0.73;0.22;;;15.00;99.90;;;;;;20959260;28;20040;-80
2022/08/29 00:55:25;;;;;;;0.65;0.30;;;14.90;99.90;;;;;;20932866;28;20081;-80
2022/08/29 01:05:26;;;;;;;0.63;0.20;;;14.80;99.90;;;;;;20923579;28;20491;-81
2022/08/29 01:15:29;;;;;;;0.77;0.30;;;14.70;99.90;;;;;;20927193;28;20037;-80
2022/08/29 01:25:37;;;;;;;1.13;0.40;;;14.70;99.90;;;;;;20950353;28;20042;-81
2022/08/29 01:35:38;;;;;;;1.25;0.38;;;14.70;99.90;;;;;;20941850;28;20532;-80
2022/08/29 01:45:38;;;;;;;0.57;0.22;;;14.80;99.90;;;;;;20951958;28;20032;-81
2022/08/29 01:55:41;;;;;;;0.88;0.50;;;14.70;99.90;;;;;;20957261;28;20063;-80
2022/08/29 02:05:42;;;;;;;0.50;0.30;;;14.80;99.90;;;;;;20968919;28;20102;-80
2022/08/29 02:15:43;;;;;;;2.40;0.60;;;14.90;99.90;;;;;;20955079;28;20033;-81
2022/08/29 02:25:46;;;;;;;1.10;0.80;;;14.80;99.90;;;;;;20950147;28;20106;-80
2022/08/29 02:35:47;;;;;;;2.42;0.40;;;14.60;99.90;;;;;;20937653;28;20041;-81
2022/08/29 02:45:49;;;;;;;1.42;0.45;;;14.50;99.90;;;;;;20939418;28;20040;-81
2022/08/29 02:55:53;;;;;;;1.20;0.40;;;14.50;99.90;;;;;;20950872;28;20105;-81
2022/08/29 03:05:55;;;;;;;1.50;0.50;;;14.40;99.90;;;;;;20940709;28;21061;-80
2022/08/29 03:15:56;;;;;;;1.48;0.63;;;14.30;99.90;;;;;;20943140;28;20617;-80
2022/08/29 03:25:58;;;;;;;1.48;0.55;;;14.30;99.90;;;;;;20936311;28;20491;-81
2022/08/29 03:35:59;;;;;;;3.33;0.30;;;14.40;99.90;;;;;;20933504;28;20653;-80
2022/08/29 03:46:00;;;;;;;1.13;0.30;;;14.50;99.90;;;;;;20929461;28;20090;-80
2022/08/29 03:56:03;;;;;;;2.40;0.50;;;14.60;99.90;;;;;;20942601;28;20032;-81
2022/08/29 04:06:04;;;;;;;0.45;0.20;;;14.70;99.90;;;;;;20926612;28;20051;-81
2022/08/29 04:16:10;;;;;;;0.82;0.38;;;14.80;99.90;;;;;;20921995;28;20060;-81
2022/08/29 04:26:18;;;;;;;0.95;0.60;;;14.80;99.90;;;;;;20925090;28;20040;-81
2022/08/29 04:36:19;;;;;;;2.92;1.10;;;14.90;99.90;;;;;;20913512;28;20407;-80
2022/08/29 04:46:20;;;;;;;1.63;0.50;;;15.00;99.90;;;;;;20942133;28;20078;-81
2022/08/29 04:56:21;;;;;;;3.03;0.60;;;15.10;99.90;;;;;;20930159;28;20453;-80
2022/08/29 05:06:23;;;;;;;0.77;0.30;;;15.10;99.90;;;;;;20939738;28;20253;-81
2022/08/29 05:16:25;;;;;;;1.23;0.40;;;15.00;99.90;;;;;;20921823;28;20434;-81
2022/08/29 05:26:32;;;;;;;1.23;0.32;;;15.00;99.90;;;;;;20943183;28;20041;-80
2022/08/29 05:36:33;;;;;;;0.73;0.38;;;15.00;99.90;;;;;;20958086;28;20453;-80
2022/08/29 05:46:34;;;;;;;1.75;0.60;;;15.10;99.90;;;;;;20939537;28;20041;-81
2022/08/29 05:56:35;;;;;;;2.13;0.60;;;15.20;99.90;;;;;;20945140;28;20037;-81
2022/08/29 06:06:38;;;;;;;0.95;0.25;;;15.30;99.90;;;;;;20962397;28;20051;-81
2022/08/29 06:16:39;;;;;;;0.95;0.38;;;15.40;99.90;;;;;;20958192;28;20071;-82
2022/08/29 06:26:42;;;;;;;3.05;1.02;;;15.40;99.90;;;;;;20964724;28;20033;-80
2022/08/29 06:36:42;;;;;;;1.02;0.20;;;15.50;99.90;;;;;;20966934;28;20102;-80
2022/08/29 06:46:48;;;;;;;2.10;0.43;;;15.60;99.90;;;;;;20973770;28;20036;-82
2022/08/29 06:56:50;;;;;;;2.53;1.08;;;15.70;99.90;;;;;;20980641;28;20404;-84
2022/08/29 07:06:51;;;;;;;3.53;0.40;;;15.80;99.90;;;;;;20961005;28;20040;-80
2022/08/29 07:16:52;;;;;;;1.08;0.40;;;15.80;99.90;;;;;;20969962;28;20039;-82
2022/08/29 07:26:53;;;;;;;2.20;0.70;;;16.00;99.90;;;;;;20970027;28;20216;-81
2022/08/29 07:36:54;;;;;;;1.73;0.30;;;16.20;99.90;;;;;;20955303;28;20319;-80
2022/08/29 07:46:57;;;;;;;1.63;0.82;;;16.30;99.90;;;;;;20957303;28;20055;-83
2022/08/29 07:56:58;;;;;;;1.90;0.47;;;16.60;99.90;;;;;;20943790;28;20086;-81
2022/08/29 08:06:59;;;;;;;2.60;0.70;;;16.70;99.90;;;;;;20943285;28;20036;-81
2022/08/29 08:17:00;;;;;;;1.33;0.57;;;16.90;99.90;;;;;;20942868;28;20038;-82
2022/08/29 08:27:01;;;;;;;1.63;0.60;;;17.20;99.90;;;;;;20951113;28;20401;-81
2022/08/29 08:37:06;;;;;;;1.23;0.38;;;17.50;99.90;;;;;;20939083;28;20110;-81
2022/08/29 08:47:11;;;;;;;1.92;0.47;;;17.60;99.90;;;;;;20943079;28;20033;-81
2022/08/29 08:57:13;;;;;;;1.17;0.55;;;17.70;99.90;;;;;;20950084;28;20028;-81
2022/08/29 09:07:55;;;;;;;2.40;0.80;;;18.00;99.90;;;;;;20948613;28;20043;-81
2022/08/29 09:18:29;;;;;;;2.38;0.50;;;18.10;99.90;;;;;;20857682;28;20033;-81
2022/08/29 09:28:30;;;;;;;2.75;1.42;;;18.30;99.90;;;;;;20975741;28;20074;-80
2022/08/29 09:38:31;;;;;;;3.60;1.17;;;18.30;99.90;;;;;;20960309;28;20503;-81
2022/08/29 09:48:34;;;;;;;0.70;0.20;;;18.30;99.90;;;;;;20964233;28;20502;-80
2022/08/29 09:58:38;;;;;;;1.25;0.35;;;18.40;99.90;;;;;;20971166;28;21608;-81
2022/08/29 10:08:41;;;;;;;1.83;0.55;;;18.70;99.90;;;;;;20946124;28;20435;-82
2022/08/29 10:18:59;;;;;;;0.90;0.30;;;18.90;99.90;;;;;;20959417;28;20050;-80
2022/08/29 10:29:28;;;;;;;1.60;0.50;;;19.00;99.90;;;;;;20957348;28;20302;-79
2022/08/29 10:39:49;;;;;;;1.85;0.57;;;19.50;99.90;;;;;;20967835;28;20051;-80
2022/08/29 10:50:32;;;;;;;0.77;0.32;;;19.80;99.90;;;;;;20974005;28;20044;-80
2022/08/29 11:00:45;;;;;;;1.92;0.30;;;20.00;99.90;;;;;;20970274;28;20519;-80
2022/08/29 11:10:49;;;;;;;2.40;0.57;;;20.50;99.90;;;;;;20991890;28;20508;-80
2022/08/29 11:20:56;;;;;;;3.22;0.82;;;20.50;99.90;;;;;;20995870;28;20480;-80
2022/08/29 11:31:22;;;;;;;1.10;0.33;;;20.30;99.90;;;;;;20981710;28;20794;-80
2022/08/29 11:41:42;;;;;;;1.67;0.75;;;20.40;99.90;;;;;;20964075;28;20229;-80
2022/08/29 11:51:43;;;;;;;3.95;1.25;;;20.50;99.90;;;;;;20939805;28;20284;-80
2022/08/29 12:01:56;;;;;;;1.88;0.65;;;20.80;99.90;;;;;;20972285;28;20038;-80
2022/08/29 12:11:57;;;;;;;2.53;0.50;;;21.70;99.90;;;;;;20962082;28;20121;-79
2022/08/29 12:21:59;;;;;;;3.83;0.80;;;22.20;99.90;;;;;;20952931;28;20036;-79
2022/08/29 12:32:12;;;;;;;0.93;0.60;;;21.70;99.90;;;;;;20976845;28;20097;-79
2022/08/29 12:42:40;;;;;;;0.65;0.30;;;21.70;99.90;;;;;;20952902;28;20040;-80
2022/08/29 12:52:41;;;;;;;1.27;0.40;;;22.30;99.90;;;;;;20965056;28;20541;-80
2022/08/29 13:02:59;;;;;;;0.90;0.22;;;21.70;99.90;;;;;;20956468;28;20032;-80
2022/08/29 13:13:10;;;;;;;2.03;0.30;;;22.20;99.90;;;;;;20980973;28;20090;-80
2022/08/29 13:23:11;;;;;;;0.98;0.30;;;22.20;99.90;;;;;;20963372;28;20246;-80
2022/08/29 13:33:26;;;;;;;1.45;0.22;;;22.50;99.90;;;;;;20961700;28;20086;-81
2022/08/29 13:43:37;;;;;;;1.08;0.35;;;23.30;99.90;;;;;;20966212;28;20221;-80
2022/08/29 13:53:38;;;;;;;0.95;0.43;;;24.10;99.90;;;;;;20958877;28;20098;-80
2022/08/29 14:03:39;;;;;;;1.08;0.63;;;23.70;99.90;;;;;;20960147;28;20037;-80
2022/08/29 14:13:40;;;;;;;0.52;0.20;;;23.10;99.90;;;;;;20973643;28;20027;-80
2022/08/29 14:23:41;;;;;;;0.60;0.15;;;23.20;99.90;;;;;;20994492;28;20475;-79
2022/08/29 14:33:42;;;;;;;1.98;0.40;;;23.60;99.90;;;;;;20995403;28;20098;-79
2022/08/29 14:43:43;;;;;;;0.30;0.20;;;23.80;99.90;;;;;;20934708;28;20032;-80
2022/08/29 14:53:44;;;;;;;1.05;0.30;;;23.30;99.90;;;;;;20966609;28;20059;-79
2022/08/29 15:03:45;;;;;;;2.50;0.40;;;22.90;99.90;;;;;;20969609;28;20028;-79
2022/08/29 15:13:46;;;;;;;0.50;0.22;;;22.90;99.90;;;;;;20973691;28;20090;-79
2022/08/29 15:23:47;;;;;;;0.38;0.13;;;22.90;99.90;;;;;;20980012;28;20036;-80
2022/08/29 15:33:48;;;;;;;0.98;0.20;;;22.70;99.90;;;;;;20964759;28;20032;-80
2022/08/29 15:43:49;;;;;;;0.93;0.28;;;22.60;99.90;;;;;;20984628;28;20512;-80
2022/08/29 15:53:50;;;;;;;0.82;0.38;;;22.00;99.90;;;;;;20978295;28;20519;-80
2022/08/29 16:03:51;;;;;;;1.55;0.60;;;21.80;99.90;;;;;;20976273;28;20513;-83
2022/08/29 16:13:57;;;;;;;1.25;0.35;;;21.80;99.90;;;;;;20971946;28;20041;-80
2022/08/29 16:23:59;;;;;;;0.80;0.40;;;21.60;99.90;;;;;;20973543;28;20033;-79
2022/08/29 16:34:01;;;;;;;1.92;0.40;;;21.50;99.90;;;;;;20978915;28;20365;-81
2022/08/29 16:44:02;;;;;;;0.63;0.25;;;21.30;99.90;;;;;;20970507;28;20082;-80
2022/08/29 16:54:03;;;;;;;0.70;0.28;;;21.10;99.90;;;;;;20973579;28;20073;-79
2022/08/29 17:04:11;;;;;;;0.88;0.40;;;21.00;99.90;;;;;;20973998;28;20036;-80
2022/08/29 17:24:14;;;;;;;5.03;1.73;;;20.80;99.90;;;;;;20969157;28;20040;-81
2022/08/29 17:34:16;;;;;;;1.25;0.60;;;20.70;99.90;;;;;;20955936;28;20040;-81
2022/08/29 17:44:18;;;;;;;1.80;0.80;;;20.50;99.90;;;;;;20965269;28;20036;-81
2022/08/29 17:54:20;;;;;;;1.30;0.50;;;20.40;99.90;;;;;;20985779;28;20052;-82
2022/08/29 18:04:22;;;;;;;2.28;0.63;;;20.30;99.90;;;;;;20980177;28;20036;-82
2022/08/29 18:14:25;;;;;;;2.42;1.15;;;20.20;99.90;;;;;;20975935;28;20454;-82
2022/08/29 18:24:25;;;;;;;4.32;0.70;;;20.00;99.90;;;;;;20980402;28;20048;-82
2022/08/29 18:34:26;;;;;;;3.03;1.08;;;19.90;99.90;;;;;;20960003;28;20052;-81
2022/08/29 18:44:28;;;;;;;1.17;0.60;;;19.80;99.90;;;;;;20984329;28;20040;-82
2022/08/29 18:54:29;;;;;;;3.20;1.58;;;19.60;99.90;;;;;;20982603;28;20054;-82
2022/08/29 19:04:30;;;;;;;1.50;0.60;;;19.50;99.90;;;;;;20976578;28;20071;-82
2022/08/29 19:14:31;;;;;;;1.73;0.70;;;19.40;99.90;;;;;;20955964;28;20492;-82
2022/08/29 19:24:32;;;;;;;2.20;0.70;;;19.40;99.90;;;;;;20966602;28;20049;-83
2022/08/29 19:34:33;;;;;;;3.55;0.65;;;19.30;99.90;;;;;;20959877;28;20041;-82
2022/08/29 19:44:34;;;;;;;3.38;0.88;;;19.20;99.90;;;;;;20955289;28;20037;-82
2022/08/29 19:54:35;;;;;;;2.28;0.90;;;19.10;99.90;;;;;;20958565;28;20036;-83
2022/08/29 20:04:36;;;;;;;2.35;0.70;;;19.20;99.90;;;;;;20966219;28;20037;-83
2022/08/29 20:14:37;;;;;;;1.25;0.40;;;19.00;99.90;;;;;;20955210;28;20036;-82
2022/08/29 20:24:38;;;;;;;2.10;0.55;;;18.90;99.90;;;;;;20964333;28;20036;-82
2022/08/29 20:34:40;;;;;;;2.13;0.47;;;18.80;99.90;;;;;;20966261;28;20514;-83
2022/08/29 20:44:42;;;;;;;1.10;0.60;;;18.70;99.90;;;;;;21001422;28;20176;-83
2022/08/29 20:54:43;;;;;;;0.85;0.60;;;18.60;99.90;;;;;;20947865;28;20044;-83
2022/08/29 21:15:04;;;;;;;1.35;0.70;;;18.40;99.90;;;;;;20934477;28;20033;-83
2022/08/29 21:25:06;;;;;;;1.10;0.43;;;18.30;99.90;;;;;;20928177;28;20113;-83
2022/08/29 21:35:08;;;;;;;1.33;0.43;;;18.10;99.90;;;;;;20938413;28;20495;-83
2022/08/29 21:45:09;;;;;;;0.93;0.40;;;18.00;99.90;;;;;;20955978;28;20789;-83
2022/08/29 21:55:11;;;;;;;0.98;0.30;;;17.90;99.90;;;;;;20941111;28;20488;-83
2022/08/29 22:05:13;;;;;;;3.33;0.93;;;17.70;99.90;;;;;;20941626;28;20024;-83
2022/08/29 22:25:35;;;;;;;2.38;1.08;;;17.60;99.90;;;;;;20946525;28;20484;-83
2022/08/29 22:35:36;;;;;;;4.00;0.90;;;17.50;99.90;;;;;;20946079;28;20542;-83
2022/08/29 22:45:41;;;;;;;0.70;0.30;;;17.40;99.90;;;;;;20943151;28;20373;-83
2022/08/29 22:55:43;;;;;;;1.25;0.50;;;17.40;99.90;;;;;;20931810;28;20155;-83
2022/08/29 23:05:44;;;;;;;1.05;0.45;;;17.30;99.90;;;;;;20930816;28;20041;-83
2022/08/29 23:15:45;;;;;;;1.58;0.35;;;17.20;99.90;;;;;;20937236;28;20131;-83
2022/08/29 23:25:46;;;;;;;1.90;0.50;;;17.10;99.90;;;;;;20939370;28;20029;-83
2022/08/29 23:35:47;;;;;;;0.90;0.60;;;17.00;99.90;;;;;;20907621;28;20061;-83
2022/08/29 23:45:49;;;;;;;0.70;0.52;;;16.90;99.90;;;;;;20915052;28;20058;-83
2022/08/29 23:55:50;;;;;;;1.85;0.50;;;16.80;99.90;;;;;;20921478;28;20057;-83
